Time;durP1;ratioP1;P1;durP2;ratioP2;P2;SDS_P1;SDS_P2;PMS_P1;PMS_P2;Temp;Humidity;BMP_temperature;BMP_pressure;BME280_temperature;BME280_humidity;BME280_pressure;Samples;Min_cycle;Max_cycle;Signal;HPM_P1;HPM_P2
2021/04/28 00:03:17;;;;;;;15.30;6.80;;;;;;;;;;8290672;28;20502;-68
2021/04/28 00:07:21;;;;;;;17.23;6.70;;;;;;;;;;8290691;28;20375;-68
2021/04/28 00:11:26;;;;;;;13.48;6.72;;;;;;;;;;8291883;28;20491;-68
2021/04/28 00:15:35;;;;;;;19.05;7.13;;;;;;;;;;8290566;28;20489;-69
2021/04/28 00:19:39;;;;;;;12.57;7.22;;;;;;;;;;8288855;28;20431;-69
2021/04/28 00:23:44;;;;;;;14.32;6.82;;;;;;;;;;8290521;28;20471;-68
2021/04/28 00:27:50;;;;;;;16.73;7.57;;;;;;;;;;8294066;28;20382;-68
2021/04/28 00:31:55;;;;;;;17.42;7.10;;;;;;;;;;8295079;28;20467;-68
2021/04/28 00:35:58;;;;;;;13.35;6.93;;;;;;;;;;8296173;28;20048;-68
2021/04/28 00:40:08;;;;;;;16.65;7.30;;;;;;;;;;8297663;28;20501;-68
2021/04/28 00:44:13;;;;;;;15.20;7.13;;;;;;;;;;8294801;28;20498;-68
2021/04/28 00:48:36;;;;;;;15.55;6.93;;;;;;;;;;8281082;28;20045;-69
2021/04/28 00:52:41;;;;;;;13.57;6.78;;;;;;;;;;8277488;28;20363;-67
2021/04/28 00:56:45;;;;;;;13.68;7.35;;;;;;;;;;8296291;28;20045;-69
2021/04/28 01:00:51;;;;;;;13.05;6.90;;;;;;;;;;8295071;28;20464;-69
2021/04/28 01:04:56;;;;;;;18.20;7.43;;;;;;;;;;8305519;28;20501;-69
2021/04/28 01:09:02;;;;;;;13.07;7.05;;;;;;;;;;8278774;28;20444;-67
2021/04/28 01:13:06;;;;;;;16.33;7.70;;;;;;;;;;8294793;28;20370;-68
2021/04/28 01:17:11;;;;;;;14.32;6.75;;;;;;;;;;8277106;28;20051;-68
2021/04/28 01:21:16;;;;;;;14.63;6.78;;;;;;;;;;8278340;28;20360;-69
2021/04/28 01:25:25;;;;;;;14.70;7.32;;;;;;;;;;8294618;28;20067;-69
2021/04/28 01:29:32;;;;;;;11.38;5.63;;;;;;;;;;8291994;28;20374;-68
2021/04/28 01:33:44;;;;;;;11.10;6.07;;;;;;;;;;8275450;28;20056;-68
2021/04/28 01:37:50;;;;;;;14.60;6.40;;;;;;;;;;8276407;28;20375;-67
2021/04/28 01:41:55;;;;;;;14.05;7.05;;;;;;;;;;8295543;28;20402;-70
2021/04/28 01:46:03;;;;;;;12.13;6.47;;;;;;;;;;8293085;28;20501;-68
2021/04/28 01:50:13;;;;;;;15.80;8.23;;;;;;;;;;8276727;28;20467;-68
2021/04/28 01:54:20;;;;;;;15.75;8.60;;;;;;;;;;8292404;28;20053;-68
2021/04/28 01:58:26;;;;;;;13.50;7.45;;;;;;;;;;8295363;28;20482;-68
2021/04/28 02:02:31;;;;;;;16.25;8.45;;;;;;;;;;8293180;28;20367;-68
2021/04/28 02:06:39;;;;;;;16.35;8.32;;;;;;;;;;8274726;28;20459;-67
2021/04/28 02:10:47;;;;;;;17.45;8.30;;;;;;;;;;8275802;28;20056;-68
2021/04/28 02:14:55;;;;;;;17.98;8.23;;;;;;;;;;8274215;28;20079;-68
2021/04/28 02:19:08;;;;;;;20.00;7.88;;;;;;;;;;8259191;28;20074;-67
2021/04/28 02:23:17;;;;;;;14.85;7.57;;;;;;;;;;8275979;28;20456;-67
2021/04/28 02:27:21;;;;;;;17.10;7.10;;;;;;;;;;8293196;28;20494;-69
2021/04/28 02:31:29;;;;;;;14.68;7.50;;;;;;;;;;8275585;28;20389;-68
2021/04/28 02:35:34;;;;;;;12.90;6.80;;;;;;;;;;8291116;28;20487;-68
2021/04/28 02:40:11;;;;;;;11.73;6.68;;;;;;;;;;8225296;28;20440;-69
2021/04/28 02:44:19;;;;;;;14.93;7.53;;;;;;;;;;8273986;28;20075;-68
2021/04/28 02:48:26;;;;;;;16.80;7.50;;;;;;;;;;8289238;28;20048;-68
2021/04/28 02:52:55;;;;;;;14.02;6.47;;;;;;;;;;8291300;28;20075;-68
2021/04/28 02:57:00;;;;;;;14.43;7.22;;;;;;;;;;8273642;28;20052;-68
2021/04/28 03:01:08;;;;;;;15.98;7.70;;;;;;;;;;8290946;28;20053;-68
2021/04/28 03:05:18;;;;;;;15.10;7.53;;;;;;;;;;8290922;28;20563;-69
2021/04/28 03:09:55;;;;;;;19.02;7.70;;;;;;;;;;8266483;28;20340;-69
2021/04/28 03:13:59;;;;;;;16.63;6.47;;;;;;;;;;8292572;28;20344;-68
2021/04/28 03:18:04;;;;;;;16.58;7.57;;;;;;;;;;8273767;28;20483;-68
2021/04/28 03:22:11;;;;;;;24.60;11.18;;;;;;;;;;8289713;28;20371;-68
2021/04/28 03:26:16;;;;;;;31.55;12.90;;;;;;;;;;8273286;28;20451;-68
2021/04/28 03:30:24;;;;;;;34.42;14.88;;;;;;;;;;8288744;28;20530;-68
2021/04/28 03:34:30;;;;;;;23.00;12.05;;;;;;;;;;8255326;28;20057;-67
2021/04/28 03:38:35;;;;;;;21.85;11.13;;;;;;;;;;8260007;28;20387;-68
2021/04/28 03:42:41;;;;;;;28.50;11.75;;;;;;;;;;8272224;28;20345;-66
2021/04/28 03:46:45;;;;;;;20.25;8.65;;;;;;;;;;8273951;28;20468;-68
2021/04/28 03:50:50;;;;;;;15.82;8.18;;;;;;;;;;8256750;28;20436;-68
2021/04/28 03:54:55;;;;;;;24.65;10.10;;;;;;;;;;8257142;28;20349;-67
2021/04/28 03:59:00;;;;;;;37.10;14.05;;;;;;;;;;8256717;28;20052;-67
2021/04/28 04:03:05;;;;;;;109.82;49.30;;;;;;;;;;8263484;28;20472;-67
2021/04/28 04:07:35;;;;;;;34.58;13.75;;;;;;;;;;8247962;28;20440;-67
2021/04/28 04:11:46;;;;;;;36.05;15.55;;;;;;;;;;8279795;28;20456;-67
2021/04/28 04:16:06;;;;;;;33.03;15.27;;;;;;;;;;8261461;28;20052;-67
2021/04/28 04:20:12;;;;;;;24.65;11.02;;;;;;;;;;8276788;28;20052;-67
2021/04/28 04:24:29;;;;;;;20.10;9.15;;;;;;;;;;8249237;28;20045;-69
2021/04/28 04:28:43;;;;;;;15.93;7.70;;;;;;;;;;8262257;28;20356;-68
2021/04/28 04:33:14;;;;;;;16.38;7.88;;;;;;;;;;8273425;28;20052;-67
2021/04/28 04:37:42;;;;;;;20.67;8.40;;;;;;;;;;8287410;28;20491;-68
2021/04/28 04:42:08;;;;;;;16.63;8.38;;;;;;;;;;8295121;28;20383;-68
2021/04/28 04:46:21;;;;;;;14.93;7.28;;;;;;;;;;8294443;28;20044;-71
2021/04/28 04:50:25;;;;;;;17.90;8.07;;;;;;;;;;8295268;28;20390;-70
2021/04/28 04:54:29;;;;;;;17.40;8.13;;;;;;;;;;8295067;28;20455;-71
2021/04/28 04:58:35;;;;;;;15.55;8.73;;;;;;;;;;8294852;28;20418;-69
2021/04/28 05:02:39;;;;;;;17.55;7.80;;;;;;;;;;8294764;28;20467;-69
2021/04/28 05:06:42;;;;;;;17.45;7.25;;;;;;;;;;8295256;28;20368;-69
2021/04/28 05:10:47;;;;;;;16.00;6.60;;;;;;;;;;8294530;28;20363;-69
2021/04/28 05:14:52;;;;;;;12.43;6.32;;;;;;;;;;8292830;28;20478;-71
2021/04/28 05:18:55;;;;;;;14.27;6.50;;;;;;;;;;8276615;28;20052;-72
2021/04/28 05:22:59;;;;;;;17.23;6.78;;;;;;;;;;8293968;28;20375;-70
2021/04/28 05:27:35;;;;;;;15.48;5.57;;;;;;;;;;8277417;28;20490;-69
2021/04/28 05:31:39;;;;;;;13.82;5.50;;;;;;;;;;8294313;28;20395;-69
2021/04/28 05:35:44;;;;;;;10.43;5.57;;;;;;;;;;8293864;28;20375;-69
2021/04/28 05:39:49;;;;;;;10.80;5.88;;;;;;;;;;8293965;28;20497;-69
2021/04/28 05:43:52;;;;;;;14.02;6.22;;;;;;;;;;8294267;28;20067;-71
2021/04/28 05:47:57;;;;;;;14.70;5.18;;;;;;;;;;8293881;28;20467;-69
2021/04/28 05:52:01;;;;;;;10.77;4.90;;;;;;;;;;8294211;28;20370;-69
2021/04/28 05:56:09;;;;;;;14.20;5.22;;;;;;;;;;8293605;28;20478;-70
2021/04/28 06:00:14;;;;;;;13.60;5.05;;;;;;;;;;8276370;28;20101;-71
2021/04/28 06:04:19;;;;;;;9.55;4.68;;;;;;;;;;8293534;28;20040;-69
2021/04/28 06:08:23;;;;;;;9.23;5.10;;;;;;;;;;8294097;28;20455;-69
2021/04/28 06:12:27;;;;;;;10.13;4.80;;;;;;;;;;8292273;28;20336;-70
2021/04/28 06:16:32;;;;;;;7.63;4.07;;;;;;;;;;8291500;28;20398;-69
2021/04/28 06:20:36;;;;;;;6.38;4.00;;;;;;;;;;8294265;28;20374;-70
2021/04/28 06:24:41;;;;;;;8.77;4.63;;;;;;;;;;8292520;28;20349;-70
2021/04/28 06:28:46;;;;;;;14.40;5.00;;;;;;;;;;8274621;28;20402;-70
2021/04/28 06:32:50;;;;;;;7.95;4.15;;;;;;;;;;8272673;28;20356;-69
2021/04/28 06:36:57;;;;;;;7.60;4.35;;;;;;;;;;8292107;28;20501;-69
2021/04/28 06:41:01;;;;;;;8.23;4.13;;;;;;;;;;8292398;28;20459;-68
2021/04/28 06:45:07;;;;;;;7.32;3.95;;;;;;;;;;8290831;28;20063;-70
2021/04/28 06:49:13;;;;;;;8.43;4.38;;;;;;;;;;8257452;28;20409;-70
2021/04/28 06:53:16;;;;;;;8.88;4.35;;;;;;;;;;8290704;28;20467;-68
2021/04/28 06:57:21;;;;;;;7.10;3.50;;;;;;;;;;8292286;28;20066;-69
2021/04/28 07:01:25;;;;;;;9.25;4.13;;;;;;;;;;8292617;28;20482;-69
2021/04/28 07:05:30;;;;;;;6.65;3.78;;;;;;;;;;8290827;28;20367;-69
2021/04/28 07:09:33;;;;;;;10.88;4.55;;;;;;;;;;8293095;28;20337;-69
2021/04/28 07:13:38;;;;;;;7.90;3.95;;;;;;;;;;8274595;28;20351;-68
2021/04/28 07:17:55;;;;;;;11.30;4.60;;;;;;;;;;8275685;28;20457;-68
2021/04/28 07:21:59;;;;;;;9.32;4.03;;;;;;;;;;8290356;28;20385;-69
2021/04/28 07:26:04;;;;;;;7.53;3.53;;;;;;;;;;8289187;28;20483;-68
2021/04/28 07:30:10;;;;;;;8.63;3.50;;;;;;;;;;8272209;28;20367;-69
2021/04/28 07:34:15;;;;;;;7.65;3.30;;;;;;;;;;8289446;28;20383;-69
2021/04/28 07:38:18;;;;;;;10.32;3.38;;;;;;;;;;8291255;28;20347;-69
2021/04/28 07:42:23;;;;;;;6.50;3.08;;;;;;;;;;8272656;28;20044;-68
2021/04/28 07:46:28;;;;;;;8.43;3.65;;;;;;;;;;8289335;28;20483;-68
2021/04/28 07:50:33;;;;;;;5.53;3.05;;;;;;;;;;8289504;28;20348;-68
2021/04/28 07:54:38;;;;;;;6.95;3.15;;;;;;;;;;8289074;28;20509;-69
2021/04/28 07:58:42;;;;;;;4.78;2.83;;;;;;;;;;8287633;28;20439;-68
2021/04/28 08:02:47;;;;;;;5.90;2.90;;;;;;;;;;8289377;28;20375;-69
2021/04/28 08:06:52;;;;;;;10.57;3.17;;;;;;;;;;8272343;28;20388;-70
2021/04/28 08:10:56;;;;;;;5.70;2.92;;;;;;;;;;8290227;28;20333;-69
2021/04/28 08:15:02;;;;;;;5.30;3.10;;;;;;;;;;8289719;28;20071;-68
2021/04/28 08:19:06;;;;;;;6.13;3.42;;;;;;;;;;8288777;28;20440;-68
2021/04/28 08:23:09;;;;;;;6.20;3.17;;;;;;;;;;8288135;28;20325;-69
2021/04/28 08:27:13;;;;;;;8.25;3.17;;;;;;;;;;8288982;28;20037;-69
2021/04/28 08:31:22;;;;;;;5.85;3.53;;;;;;;;;;8287482;28;20369;-69
2021/04/28 08:35:27;;;;;;;7.13;3.25;;;;;;;;;;8287784;28;20493;-69
2021/04/28 08:39:32;;;;;;;8.35;3.20;;;;;;;;;;8270572;28;20341;-69
2021/04/28 08:43:37;;;;;;;5.28;3.53;;;;;;;;;;8289231;28;20063;-69
2021/04/28 08:47:42;;;;;;;6.38;3.60;;;;;;;;;;8292181;28;20082;-70
2021/04/28 08:51:47;;;;;;;7.35;3.95;;;;;;;;;;8292826;28;20481;-70
2021/04/28 08:55:58;;;;;;;6.07;3.35;;;;;;;;;;8277427;28;20497;-70
2021/04/28 09:00:06;;;;;;;7.57;3.35;;;;;;;;;;8294472;28;20058;-69
2021/04/28 09:04:21;;;;;;;6.22;3.50;;;;;;;;;;8277200;28;20044;-70
2021/04/28 09:08:27;;;;;;;6.30;3.70;;;;;;;;;;8261322;28;20406;-70
2021/04/28 09:12:32;;;;;;;9.93;4.10;;;;;;;;;;8294706;28;20386;-69
2021/04/28 09:16:37;;;;;;;10.07;3.58;;;;;;;;;;8295513;28;20482;-69
2021/04/28 09:20:52;;;;;;;9.07;4.10;;;;;;;;;;8292317;28;20474;-69
2021/04/28 09:25:15;;;;;;;7.15;3.42;;;;;;;;;;8293915;28;20478;-70
2021/04/28 09:29:38;;;;;;;9.27;3.28;;;;;;;;;;8294162;28;20335;-69
2021/04/28 09:33:59;;;;;;;6.05;3.05;;;;;;;;;;8293877;28;20367;-69
2021/04/28 09:38:04;;;;;;;8.65;3.63;;;;;;;;;;8293906;28;20111;-69
2021/04/28 09:42:08;;;;;;;6.65;3.08;;;;;;;;;;8293898;28;20358;-69
2021/04/28 09:46:13;;;;;;;5.78;3.08;;;;;;;;;;8294200;28;20099;-70
2021/04/28 09:50:28;;;;;;;6.32;3.38;;;;;;;;;;8275346;28;20371;-70
2021/04/28 09:54:32;;;;;;;4.53;3.10;;;;;;;;;;8295776;28;20443;-70
2021/04/28 09:58:53;;;;;;;13.63;3.88;;;;;;;;;;8292658;28;20368;-69
2021/04/28 10:03:08;;;;;;;5.97;3.63;;;;;;;;;;8293364;28;20056;-69
2021/04/28 10:07:26;;;;;;;;;;;;;;;;;;8294348;28;20469;-69
2021/04/28 10:11:30;;;;;;;6.65;3.25;;;;;;;;;;8293924;28;20281;-70
2021/04/28 10:15:36;;;;;;;8.40;3.10;;;;;;;;;;8294037;28;20052;-71
2021/04/28 10:19:41;;;;;;;3.85;2.90;;;;;;;;;;8294164;28;20458;-69
2021/04/28 10:23:45;;;;;;;8.77;3.33;;;;;;;;;;8292102;28;20360;-70
2021/04/28 10:27:51;;;;;;;5.80;3.70;;;;;;;;;;8293326;28;20363;-70
2021/04/28 10:31:55;;;;;;;5.47;3.30;;;;;;;;;;8292603;28;20413;-69
2021/04/28 10:36:04;;;;;;;11.50;3.38;;;;;;;;;;8227109;28;20487;-70
2021/04/28 10:40:18;;;;;;;8.90;3.75;;;;;;;;;;8227968;28;20106;-70
2021/04/28 10:44:44;;;;;;;5.35;3.28;;;;;;;;;;8229035;28;20071;-70
2021/04/28 10:48:49;;;;;;;5.75;3.28;;;;;;;;;;8227060;28;20510;-69
2021/04/28 10:53:18;;;;;;;8.45;3.63;;;;;;;;;;8240885;28;20484;-70
2021/04/28 10:57:41;;;;;;;4.75;2.90;;;;;;;;;;8223529;28;20372;-69
2021/04/28 11:02:03;;;;;;;6.18;3.53;;;;;;;;;;8224053;28;20522;-68
2021/04/28 11:06:17;;;;;;;8.25;3.15;;;;;;;;;;8228041;28;20502;-69
2021/04/28 11:10:36;;;;;;;4.20;3.08;;;;;;;;;;8225027;28;20068;-69
2021/04/28 11:14:48;;;;;;;8.27;3.35;;;;;;;;;;8223750;28;20764;-69
2021/04/28 11:19:30;;;;;;;6.25;3.55;;;;;;;;;;8224767;28;20501;-70
2021/04/28 11:23:35;;;;;;;6.80;3.20;;;;;;;;;;8226708;28;20054;-70
2021/04/28 11:27:57;;;;;;;7.85;3.28;;;;;;;;;;8222167;28;20484;-70
2021/04/28 11:32:20;;;;;;;5.05;3.00;;;;;;;;;;8225282;28;20483;-69
2021/04/28 11:36:25;;;;;;;6.82;3.53;;;;;;;;;;8290327;28;20390;-69
2021/04/28 11:40:30;;;;;;;5.13;3.23;;;;;;;;;;8287950;28;20482;-69
2021/04/28 11:44:57;;;;;;;4.97;2.67;;;;;;;;;;8289188;28;20797;-69
2021/04/28 11:49:02;;;;;;;5.80;3.50;;;;;;;;;;8290602;28;20360;-69
2021/04/28 11:53:07;;;;;;;4.75;3.08;;;;;;;;;;8290477;28;20477;-69
2021/04/28 11:57:10;;;;;;;4.57;2.92;;;;;;;;;;8288901;28;20483;-70
2021/04/28 12:01:16;;;;;;;5.57;3.03;;;;;;;;;;8271336;28;20505;-71
2021/04/28 12:05:24;;;;;;;6.57;3.40;;;;;;;;;;8288690;28;20521;-70
2021/04/28 12:09:39;;;;;;;4.45;3.00;;;;;;;;;;8289034;28;20694;-69
2021/04/28 12:13:45;;;;;;;6.10;2.97;;;;;;;;;;8290883;28;20450;-69
2021/04/28 12:17:53;;;;;;;6.88;2.80;;;;;;;;;;8289524;28;20421;-71
2021/04/28 12:22:04;;;;;;;6.60;2.90;;;;;;;;;;8290736;28;20451;-69
2021/04/28 12:26:08;;;;;;;9.25;3.22;;;;;;;;;;8279940;28;20056;-69
2021/04/28 12:30:17;;;;;;;6.50;3.28;;;;;;;;;;8295772;28;20495;-69
2021/04/28 12:34:22;;;;;;;7.93;3.83;;;;;;;;;;8294984;28;20359;-69
2021/04/28 12:38:26;;;;;;;9.30;4.18;;;;;;;;;;8295171;28;20337;-69
2021/04/28 12:42:35;;;;;;;5.90;3.17;;;;;;;;;;8296021;28;20496;-69
2021/04/28 12:46:38;;;;;;;8.52;3.25;;;;;;;;;;8297249;28;20423;-69
2021/04/28 12:50:46;;;;;;;6.88;3.40;;;;;;;;;;8295044;28;20371;-69
2021/04/28 12:54:50;;;;;;;5.57;3.38;;;;;;;;;;8297503;28;20045;-70
2021/04/28 12:58:56;;;;;;;5.45;3.35;;;;;;;;;;8296088;28;20075;-70
2021/04/28 13:03:06;;;;;;;7.07;3.35;;;;;;;;;;8295886;28;20436;-69
2021/04/28 13:07:24;;;;;;;6.65;3.53;;;;;;;;;;8294440;28;20386;-69
2021/04/28 13:11:29;;;;;;;7.22;3.15;;;;;;;;;;8294912;28;20455;-70
2021/04/28 13:15:40;;;;;;;7.63;3.17;;;;;;;;;;8294801;28;20170;-69
2021/04/28 13:19:44;;;;;;;6.63;3.30;;;;;;;;;;8277382;28;20482;-69
2021/04/28 13:24:09;;;;;;;5.97;3.15;;;;;;;;;;8278353;28;20071;-69
2021/04/28 13:28:38;;;;;;;7.80;3.40;;;;;;;;;;8295087;28;20472;-69
2021/04/28 13:32:53;;;;;;;6.50;3.25;;;;;;;;;;8292687;28;20049;-70
2021/04/28 13:36:58;;;;;;;5.30;2.80;;;;;;;;;;8294197;28;20052;-70
2021/04/28 13:41:10;;;;;;;8.98;3.30;;;;;;;;;;8277509;28;20463;-69
2021/04/28 13:45:15;;;;;;;5.80;3.70;;;;;;;;;;8294276;28;20436;-68
2021/04/28 13:49:20;;;;;;;8.95;3.50;;;;;;;;;;8295094;28;20375;-69
2021/04/28 13:53:25;;;;;;;6.60;3.17;;;;;;;;;;8293782;28;20356;-68
2021/04/28 13:57:30;;;;;;;9.23;3.20;;;;;;;;;;8294972;28;20475;-70
2021/04/28 14:01:34;;;;;;;6.50;3.30;;;;;;;;;;8276012;28;20063;-69
2021/04/28 14:05:39;;;;;;;5.65;3.35;;;;;;;;;;8276237;28;20372;-68
2021/04/28 14:09:43;;;;;;;8.43;3.30;;;;;;;;;;8293173;28;20467;-68
2021/04/28 14:13:50;;;;;;;6.72;3.42;;;;;;;;;;8293282;28;20360;-69
2021/04/28 14:17:53;;;;;;;7.85;3.22;;;;;;;;;;8293394;28;20475;-69
2021/04/28 14:22:01;;;;;;;8.82;2.78;;;;;;;;;;8291884;28;20332;-68
2021/04/28 14:26:06;;;;;;;4.85;3.13;;;;;;;;;;8293110;28;20452;-69
2021/04/28 14:30:10;;;;;;;7.80;3.45;;;;;;;;;;8293351;28;20455;-69
2021/04/28 14:34:15;;;;;;;6.28;2.92;;;;;;;;;;8291552;28;20057;-68
2021/04/28 14:38:20;;;;;;;4.60;3.30;;;;;;;;;;8291630;28;20045;-68
2021/04/28 14:42:23;;;;;;;7.63;4.05;;;;;;;;;;8274686;28;20443;-68
2021/04/28 14:46:28;;;;;;;6.72;3.65;;;;;;;;;;8290901;28;20391;-68
2021/04/28 14:50:33;;;;;;;5.88;3.00;;;;;;;;;;8293016;28;20467;-68
2021/04/28 14:54:38;;;;;;;5.68;3.20;;;;;;;;;;8290540;28;20391;-68
2021/04/28 14:58:43;;;;;;;6.05;3.22;;;;;;;;;;8271662;28;20383;-68
2021/04/28 15:02:48;;;;;;;11.82;3.78;;;;;;;;;;8290414;28;20699;-68
2021/04/28 15:06:52;;;;;;;6.00;3.03;;;;;;;;;;8274559;28;20455;-69
2021/04/28 15:10:57;;;;;;;5.40;3.58;;;;;;;;;;8291185;28;20075;-68
2021/04/28 15:15:03;;;;;;;8.50;3.08;;;;;;;;;;8291188;28;20489;-68
2021/04/28 15:19:07;;;;;;;8.63;3.20;;;;;;;;;;8291944;28;20407;-68
2021/04/28 15:23:14;;;;;;;6.50;3.08;;;;;;;;;;8273055;28;20459;-69
2021/04/28 15:27:21;;;;;;;5.78;3.47;;;;;;;;;;8290173;28;20406;-69
2021/04/28 15:31:25;;;;;;;5.22;3.40;;;;;;;;;;8291063;28;20489;-68
2021/04/28 15:35:37;;;;;;;7.18;3.30;;;;;;;;;;8290458;28;20452;-68
2021/04/28 15:39:41;;;;;;;6.00;3.35;;;;;;;;;;8292655;28;20357;-68
2021/04/28 15:43:46;;;;;;;14.13;3.70;;;;;;;;;;8289504;28;20067;-68
2021/04/28 15:47:51;;;;;;;4.10;2.95;;;;;;;;;;8289254;28;20464;-68
2021/04/28 15:51:57;;;;;;;6.05;3.58;;;;;;;;;;8289992;28;20067;-68
2021/04/28 15:56:02;;;;;;;4.80;3.30;;;;;;;;;;8289579;28;20375;-69
2021/04/28 16:00:07;;;;;;;5.25;2.97;;;;;;;;;;8291630;28;20475;-68
2021/04/28 16:04:15;;;;;;;10.00;3.05;;;;;;;;;;8289603;28;20396;-68
2021/04/28 16:08:19;;;;;;;9.60;4.35;;;;;;;;;;8290364;28;20347;-68
2021/04/28 16:12:24;;;;;;;6.00;3.85;;;;;;;;;;8289371;28;20476;-68
2021/04/28 16:16:35;;;;;;;5.55;3.28;;;;;;;;;;8289140;28;20048;-68
2021/04/28 16:20:40;;;;;;;10.00;4.10;;;;;;;;;;8290742;28;20079;-68
2021/04/28 16:24:44;;;;;;;5.57;3.50;;;;;;;;;;8290927;28;20474;-68
2021/04/28 16:28:49;;;;;;;8.23;3.65;;;;;;;;;;8288826;28;20059;-68
2021/04/28 16:32:53;;;;;;;6.38;3.40;;;;;;;;;;8288962;28;20367;-68
2021/04/28 16:37:02;;;;;;;7.20;3.40;;;;;;;;;;8288952;28;20489;-68
2021/04/28 16:41:07;;;;;;;11.35;3.80;;;;;;;;;;8289565;28;20352;-68
2021/04/28 16:45:12;;;;;;;7.13;3.55;;;;;;;;;;8292109;28;20053;-70
2021/04/28 16:49:17;;;;;;;7.55;3.38;;;;;;;;;;8292397;28;20455;-68
2021/04/28 16:53:22;;;;;;;6.18;3.67;;;;;;;;;;8288974;28;20490;-68
2021/04/28 16:57:27;;;;;;;8.15;4.18;;;;;;;;;;8290624;28;20490;-68
2021/04/28 17:01:31;;;;;;;8.07;3.80;;;;;;;;;;8289222;28;20379;-69
2021/04/28 17:05:36;;;;;;;26.65;4.20;;;;;;;;;;8288710;28;20459;-68
2021/04/28 17:09:40;;;;;;;7.75;3.83;;;;;;;;;;8291531;28;20463;-68
2021/04/28 17:13:45;;;;;;;10.00;3.60;;;;;;;;;;8297431;28;20044;-67
2021/04/28 17:17:49;;;;;;;6.88;3.30;;;;;;;;;;8294343;28;20490;-68
2021/04/28 17:21:54;;;;;;;6.07;3.45;;;;;;;;;;8292401;28;20501;-68
2021/04/28 17:25:59;;;;;;;6.25;3.10;;;;;;;;;;8296040;28;20356;-68
2021/04/28 17:30:05;;;;;;;8.63;3.75;;;;;;;;;;8294486;28;20525;-68
2021/04/28 17:34:15;;;;;;;11.05;3.65;;;;;;;;;;8292129;28;20355;-68
2021/04/28 17:38:19;;;;;;;8.85;4.03;;;;;;;;;;8293083;28;20435;-67
2021/04/28 17:42:23;;;;;;;7.32;3.50;;;;;;;;;;8293452;28;20075;-68
2021/04/28 17:46:28;;;;;;;7.72;3.92;;;;;;;;;;8292280;28;20478;-68
2021/04/28 17:50:31;;;;;;;13.77;5.60;;;;;;;;;;8294569;28;20446;-68
2021/04/28 17:54:36;;;;;;;16.52;5.65;;;;;;;;;;8293072;28;20374;-68
2021/04/28 17:58:40;;;;;;;9.65;5.13;;;;;;;;;;8295680;28;20639;-68
2021/04/28 18:02:46;;;;;;;9.40;4.85;;;;;;;;;;8295296;28;20501;-68
2021/04/28 18:06:53;;;;;;;7.70;4.63;;;;;;;;;;8293139;28;20383;-68
2021/04/28 18:10:57;;;;;;;18.33;7.32;;;;;;;;;;8292945;28;20380;-68
2021/04/28 18:15:02;;;;;;;14.93;6.18;;;;;;;;;;8274076;28;20395;-68
2021/04/28 18:19:06;;;;;;;14.07;5.47;;;;;;;;;;8292115;28;20378;-68
2021/04/28 18:23:11;;;;;;;13.73;6.28;;;;;;;;;;8293085;28;20467;-68
2021/04/28 18:27:16;;;;;;;12.07;5.57;;;;;;;;;;8292246;28;20081;-68
2021/04/28 18:31:19;;;;;;;12.05;5.97;;;;;;;;;;8292697;28;20052;-68
2021/04/28 18:35:25;;;;;;;14.65;6.50;;;;;;;;;;8294236;28;20474;-68
2021/04/28 18:39:30;;;;;;;20.10;6.72;;;;;;;;;;8291270;28;20083;-68
2021/04/28 18:43:35;;;;;;;19.73;7.72;;;;;;;;;;8291077;28;20444;-68
2021/04/28 18:47:40;;;;;;;17.40;6.75;;;;;;;;;;8292207;28;20475;-70
2021/04/28 18:51:44;;;;;;;20.63;7.22;;;;;;;;;;8266161;28;20403;-68
2021/04/28 18:55:48;;;;;;;14.73;7.40;;;;;;;;;;8290253;28;20053;-68
2021/04/28 18:59:52;;;;;;;18.05;7.53;;;;;;;;;;8271734;28;20462;-68
2021/04/28 19:03:57;;;;;;;20.52;6.80;;;;;;;;;;8291430;28;20352;-68
2021/04/28 19:08:01;;;;;;;27.67;11.88;;;;;;;;;;8292013;28;20312;-67
2021/04/28 19:12:06;;;;;;;70.88;29.55;;;;;;;;;;8290881;28;20406;-68
2021/04/28 19:16:12;;;;;;;43.47;17.80;;;;;;;;;;8290609;28;20478;-69
2021/04/28 19:20:17;;;;;;;29.77;15.52;;;;;;;;;;8290807;28;20471;-68
2021/04/28 19:24:22;;;;;;;40.38;15.77;;;;;;;;;;8290527;28;20071;-68
2021/04/28 19:28:26;;;;;;;48.72;18.83;;;;;;;;;;8290394;28;20452;-68
2021/04/28 19:32:34;;;;;;;27.65;10.43;;;;;;;;;;8288647;28;20463;-69
2021/04/28 19:36:38;;;;;;;20.33;8.90;;;;;;;;;;8288916;28;20357;-68
2021/04/28 19:40:42;;;;;;;20.40;8.60;;;;;;;;;;8270675;28;20408;-68
2021/04/28 19:44:47;;;;;;;23.35;7.80;;;;;;;;;;8288019;28;20422;-68
2021/04/28 19:48:51;;;;;;;19.23;7.90;;;;;;;;;;8290323;28;20351;-68
2021/04/28 19:52:56;;;;;;;17.05;6.88;;;;;;;;;;8289573;28;20471;-68
2021/04/28 19:57:00;;;;;;;18.15;8.77;;;;;;;;;;8291683;28;20110;-68
2021/04/28 20:01:05;;;;;;;15.60;7.05;;;;;;;;;;8290354;28;20518;-68
2021/04/28 20:05:10;;;;;;;17.00;6.68;;;;;;;;;;8272828;28;20499;-68
2021/04/28 20:09:17;;;;;;;14.23;6.72;;;;;;;;;;8290016;28;20156;-67
2021/04/28 20:13:21;;;;;;;14.20;6.88;;;;;;;;;;8287082;28;20497;-68
2021/04/28 20:17:25;;;;;;;16.85;7.88;;;;;;;;;;8271406;28;20352;-69
2021/04/28 20:21:29;;;;;;;18.60;7.53;;;;;;;;;;8289267;28;20380;-68
2021/04/28 20:25:34;;;;;;;22.27;9.57;;;;;;;;;;8289913;28;20367;-68
2021/04/28 20:29:38;;;;;;;18.42;8.50;;;;;;;;;;8288531;28;20472;-69
2021/04/28 20:33:43;;;;;;;22.33;9.75;;;;;;;;;;8290229;28;20107;-68
2021/04/28 20:37:48;;;;;;;19.63;8.30;;;;;;;;;;8289176;28;20490;-68
2021/04/28 20:41:53;;;;;;;20.83;8.90;;;;;;;;;;8289472;28;20479;-70
2021/04/28 20:45:58;;;;;;;12.35;6.13;;;;;;;;;;8294893;28;20467;-68
2021/04/28 20:50:05;;;;;;;15.75;6.30;;;;;;;;;;8294843;28;20473;-68
2021/04/28 20:54:09;;;;;;;18.73;7.03;;;;;;;;;;8295389;28;20383;-68
2021/04/28 20:58:15;;;;;;;16.10;6.65;;;;;;;;;;8277596;28;20466;-68
2021/04/28 21:02:19;;;;;;;14.30;6.40;;;;;;;;;;8294928;28;20367;-68
2021/04/28 21:06:32;;;;;;;12.23;5.65;;;;;;;;;;8295272;28;20500;-68
2021/04/28 21:10:38;;;;;;;15.93;6.15;;;;;;;;;;8294980;28;20459;-68
2021/04/28 21:14:41;;;;;;;10.88;5.57;;;;;;;;;;8295602;28;20049;-68
2021/04/28 21:18:45;;;;;;;18.90;6.55;;;;;;;;;;8294772;28;20041;-69
2021/04/28 21:22:50;;;;;;;17.40;6.95;;;;;;;;;;8277144;28;20371;-68
2021/04/28 21:26:55;;;;;;;13.10;6.93;;;;;;;;;;8294403;28;20478;-68
2021/04/28 21:30:59;;;;;;;16.02;6.45;;;;;;;;;;8276649;28;20052;-68
2021/04/28 21:35:06;;;;;;;16.63;6.25;;;;;;;;;;8294138;28;20487;-69
2021/04/28 21:39:11;;;;;;;11.03;5.63;;;;;;;;;;8294220;28;20459;-68
2021/04/28 21:43:16;;;;;;;13.85;5.55;;;;;;;;;;8294004;28;20374;-68
2021/04/28 21:47:20;;;;;;;15.40;7.13;;;;;;;;;;8293846;28;20374;-68
2021/04/28 21:51:25;;;;;;;20.77;7.78;;;;;;;;;;8293828;28;20463;-67
2021/04/28 21:55:30;;;;;;;21.75;7.78;;;;;;;;;;8292698;28;20479;-69
2021/04/28 21:59:34;;;;;;;18.88;6.90;;;;;;;;;;8293453;28;20467;-68
2021/04/28 22:03:39;;;;;;;15.18;6.78;;;;;;;;;;8295775;28;20627;-68
2021/04/28 22:07:44;;;;;;;21.58;7.40;;;;;;;;;;8294020;28;20071;-68
2021/04/28 22:11:49;;;;;;;18.45;7.43;;;;;;;;;;8276009;28;20570;-68
2021/04/28 22:15:54;;;;;;;17.33;7.22;;;;;;;;;;8292809;28;20474;-68
2021/04/28 22:19:58;;;;;;;17.45;7.38;;;;;;;;;;8292304;28;20471;-67
2021/04/28 22:24:02;;;;;;;18.13;7.55;;;;;;;;;;8292607;28;20459;-67
2021/04/28 22:28:07;;;;;;;16.20;6.93;;;;;;;;;;8274755;28;20360;-68
2021/04/28 22:32:11;;;;;;;15.68;7.35;;;;;;;;;;8293399;28;20049;-67
2021/04/28 22:36:16;;;;;;;14.93;7.15;;;;;;;;;;8293625;28;20078;-68
2021/04/28 22:40:21;;;;;;;18.00;7.72;;;;;;;;;;8291945;28;20371;-69
2021/04/28 22:44:25;;;;;;;17.00;7.57;;;;;;;;;;8292698;28;20487;-69
2021/04/28 22:48:30;;;;;;;22.05;8.30;;;;;;;;;;8292228;28;20364;-68
2021/04/28 22:52:34;;;;;;;17.05;7.80;;;;;;;;;;8291646;28;20463;-68
2021/04/28 22:56:38;;;;;;;19.40;7.95;;;;;;;;;;8291084;28;20444;-67
2021/04/28 23:00:43;;;;;;;20.42;7.63;;;;;;;;;;8291110;28;20463;-68
2021/04/28 23:04:47;;;;;;;15.90;7.20;;;;;;;;;;8290968;28;20506;-67
2021/04/28 23:08:51;;;;;;;24.02;8.13;;;;;;;;;;8290430;28;20367;-68
2021/04/28 23:12:56;;;;;;;15.50;7.72;;;;;;;;;;8291410;28;20075;-68
2021/04/28 23:17:00;;;;;;;16.58;7.47;;;;;;;;;;8273560;28;20495;-68
2021/04/28 23:21:04;;;;;;;17.60;7.47;;;;;;;;;;8291161;28;20491;-68
2021/04/28 23:25:10;;;;;;;16.60;7.45;;;;;;;;;;8292620;28;20479;-68
2021/04/28 23:29:15;;;;;;;17.70;7.25;;;;;;;;;;8292086;28;20413;-68
2021/04/28 23:33:19;;;;;;;17.15;7.35;;;;;;;;;;8290178;28;20559;-67
2021/04/28 23:37:24;;;;;;;21.50;8.05;;;;;;;;;;8290760;28;20466;-67
2021/04/28 23:41:30;;;;;;;19.52;7.28;;;;;;;;;;8291220;28;20053;-67
2021/04/28 23:45:34;;;;;;;15.27;7.90;;;;;;;;;;8292095;28;20452;-67
2021/04/28 23:49:39;;;;;;;19.48;7.13;;;;;;;;;;8290081;28;20075;-68
2021/04/28 23:53:45;;;;;;;20.85;8.35;;;;;;;;;;8290527;28;20487;-69
2021/04/28 23:57:50;;;;;;;18.25;8.45;;;;;;;;;;8290472;28;20483;-68
